»·PEaware :: DAL3708 KSEA-KSFO

DAL3708 :: KSEA-KSFO

FLIGHT INFORMATION

Flight Status: Arrived
Operator:
Delta Air Lines
More flights by this operator :: More flights under this callsign
Pilot: Elias V. (31096)
Aircraft: AIRBUS A319
(A319)
More flights by this aircraft type
Origin: KSEA Seattle-Tacoma Intl
United States
Destination: KSFO San Francisco Intl
United States
More flights between these airports :: More routes between these airports
Route: HAROB6 FEPOT Q3 FOWND MLBEC BDEGA3
File this flight plan on PilotEdge
Remarks: RMK / SIMBRIEF
Altitude:
(Current/Filed)
37,000ft
Speed:
(Current/Filed)
441kts
Departed: 18-Oct-20 08:16 AM
Arrived: 18-Oct-20 09:57 AM
Distance/Time
Traveled:
590nm/1:41
Distance/Time
To Go:
Arrived

Flight Plot

Page will automatically refresh every two minutes.

Flight plan parsing failed; only flown route is shown


Map Options




Map Legend


Flown Route
Filed Route
Departure Airport
Arrival Airport
Navaid (VOR, NDB)
Fix

Horizontal Profiles

Position Reports

Time Latitude Longitude Heading Altitude Ground
Speed
18-Oct-20 07:38 47.441864 -122.301758 45 383ft 0kts
18-Oct-20 07:39 47.441864 -122.301758 45 383ft 0kts
18-Oct-20 07:40 47.441864 -122.301758 45 383ft 0kts
18-Oct-20 07:41 47.441864 -122.301758 45 383ft 0kts
18-Oct-20 07:42 47.441864 -122.301758 45 383ft 0kts
18-Oct-20 07:43 47.441864 -122.301758 45 383ft 0kts
18-Oct-20 07:44 47.441864 -122.301758 45 383ft 0kts
18-Oct-20 07:45 47.441864 -122.301758 45 383ft 0kts
18-Oct-20 07:45 47.441864 -122.301758 45 383ft 0kts
18-Oct-20 07:47 47.441864 -122.301758 45 383ft 0kts
18-Oct-20 07:47 47.441864 -122.301758 45 383ft 0kts
18-Oct-20 07:49 47.441864 -122.301758 45 383ft 0kts
18-Oct-20 07:50 47.441864 -122.301758 45 383ft 0kts
18-Oct-20 07:50 47.441864 -122.301758 45 383ft 0kts
18-Oct-20 07:52 47.441864 -122.301758 45 383ft 0kts
18-Oct-20 07:52 47.441864 -122.301758 45 383ft 0kts
18-Oct-20 07:54 47.441864 -122.301758 45 383ft 0kts
18-Oct-20 07:54 47.441864 -122.301758 45 383ft 0kts
18-Oct-20 07:55 47.441864 -122.301758 45 383ft 0kts
18-Oct-20 07:56 47.441864 -122.301758 45 383ft 0kts
18-Oct-20 07:57 47.441864 -122.301758 45 383ft 0kts
18-Oct-20 07:58 47.441864 -122.301758 45 383ft 0kts
18-Oct-20 07:59 47.441864 -122.301758 45 383ft 0kts
18-Oct-20 08:00 47.441864 -122.301758 45 383ft 0kts
18-Oct-20 08:01 47.441836 -122.301802 44 383ft 2kts
18-Oct-20 08:02 47.441354 -122.301572 281 382ft 1kts
18-Oct-20 08:03 47.441345 -122.301438 274 382ft 0kts
18-Oct-20 08:04 47.441345 -122.301438 274 382ft 0kts
18-Oct-20 08:05 47.441346 -122.301440 274 382ft 0kts
18-Oct-20 08:06 47.439898 -122.303533 264 379ft 16kts
18-Oct-20 08:07 47.442927 -122.306334 0 385ft 16kts
18-Oct-20 08:08 47.446769 -122.306285 1 397ft 12kts
18-Oct-20 08:09 47.449886 -122.306265 0 409ft 10kts
18-Oct-20 08:10 47.452855 -122.306228 0 424ft 14kts
18-Oct-20 08:11 47.458003 -122.306180 0 440ft 23kts
18-Oct-20 08:12 47.463628 -122.306346 311 418ft 5kts
18-Oct-20 08:13 47.463645 -122.306378 306 417ft 0kts
18-Oct-20 08:14 47.463695 -122.307276 241 410ft 11kts
18-Oct-20 08:15 47.454595 -122.307825 180 428ft 132kts
18-Oct-20 08:16 47.403076 -122.308274 180 2959ft 228kts
18-Oct-20 08:17 47.335910 -122.315254 211 6456ft 245kts
18-Oct-20 08:18 47.310210 -122.403170 262 9873ft 248kts
18-Oct-20 08:19 47.308848 -122.514047 274 11705ft 306kts
18-Oct-20 08:20 47.312750 -122.652668 274 13369ft 360kts
18-Oct-20 08:21 47.306113 -122.801413 258 16222ft 377kts
18-Oct-20 08:22 47.267793 -122.949485 254 18589ft 392kts
18-Oct-20 08:23 47.203937 -123.084104 225 20623ft 429kts
18-Oct-20 08:24 47.105870 -123.189226 217 22331ft 452kts
18-Oct-20 08:25 46.975335 -123.216721 185 23932ft 498kts
18-Oct-20 08:26 46.836584 -123.210663 184 25486ft 504kts
18-Oct-20 08:27 46.696608 -123.205541 184 27198ft 502kts
18-Oct-20 08:28 46.557445 -123.200918 184 28770ft 501kts
18-Oct-20 08:29 46.417942 -123.196320 185 30169ft 501kts
18-Oct-20 08:30 46.279521 -123.191796 185 31527ft 498kts
18-Oct-20 08:31 46.141119 -123.187298 185 32734ft 497kts
18-Oct-20 08:32 46.003822 -123.182852 185 33848ft 495kts
18-Oct-20 08:33 45.865983 -123.178407 185 34797ft 494kts
18-Oct-20 08:34 45.728639 -123.173922 185 35606ft 493kts
18-Oct-20 08:35 45.592045 -123.169535 185 36348ft 492kts
18-Oct-20 08:36 45.455584 -123.165207 185 36981ft 491kts
18-Oct-20 08:37 45.318914 -123.160923 185 37201ft 492kts
18-Oct-20 08:38 45.181892 -123.156626 185 37205ft 492kts
18-Oct-20 08:39 45.045701 -123.152239 186 37211ft 486kts
18-Oct-20 08:40 44.913088 -123.148089 188 37215ft 471kts
18-Oct-20 08:41 44.781956 -123.144135 188 37219ft 471kts
18-Oct-20 08:42 44.650848 -123.140108 188 37233ft 471kts
18-Oct-20 08:43 44.529334 -123.136353 188 37249ft 471kts
18-Oct-20 08:44 44.398372 -123.131911 187 37253ft 471kts
18-Oct-20 08:45 44.267112 -123.127198 187 37253ft 471kts
18-Oct-20 08:46 44.136147 -123.122563 187 37254ft 474kts
18-Oct-20 08:47 44.003976 -123.117911 187 37253ft 477kts
18-Oct-20 08:48 43.871582 -123.113241 187 37252ft 477kts
18-Oct-20 08:49 43.738934 -123.108496 187 37252ft 477kts
18-Oct-20 08:50 43.606380 -123.103873 187 37255ft 477kts
18-Oct-20 08:51 43.473841 -123.099319 187 37271ft 477kts
18-Oct-20 08:52 43.341166 -123.094741 187 37280ft 478kts
18-Oct-20 08:53 43.208165 -123.090166 187 37282ft 477kts
18-Oct-20 08:54 43.075704 -123.085644 187 37281ft 477kts
18-Oct-20 08:55 42.943299 -123.081304 185 37282ft 476kts
18-Oct-20 08:56 42.811480 -123.076712 184 37281ft 474kts
18-Oct-20 08:57 42.679834 -123.072070 184 37281ft 474kts
18-Oct-20 08:58 42.548310 -123.067605 184 37281ft 474kts
18-Oct-20 08:59 42.416540 -123.063263 184 37281ft 474kts
18-Oct-20 09:00 42.284699 -123.059046 184 37281ft 474kts
18-Oct-20 09:01 42.153365 -123.054826 184 37281ft 474kts
18-Oct-20 09:02 42.021371 -123.050601 184 37281ft 474kts
18-Oct-20 09:03 41.889572 -123.046398 184 37282ft 474kts
18-Oct-20 09:04 41.757973 -123.042146 184 37288ft 474kts
18-Oct-20 09:05 41.626356 -123.038002 184 37290ft 474kts
18-Oct-20 09:06 41.494951 -123.033847 184 37290ft 474kts
18-Oct-20 09:07 41.362830 -123.029691 184 37290ft 474kts
18-Oct-20 09:08 41.231104 -123.025705 184 37290ft 474kts
18-Oct-20 09:09 41.099615 -123.021803 184 37291ft 473kts
18-Oct-20 09:10 40.969388 -123.018131 181 37220ft 464kts
18-Oct-20 09:11 40.840637 -123.014083 181 37128ft 463kts
18-Oct-20 09:12 40.712393 -123.010164 181 37110ft 463kts
18-Oct-20 09:13 40.583724 -123.006328 181 37108ft 463kts
18-Oct-20 09:14 40.454978 -123.002512 181 36993ft 463kts
18-Oct-20 09:15 40.326338 -122.998736 181 36997ft 463kts
18-Oct-20 09:16 40.197602 -122.994926 181 37000ft 463kts
18-Oct-20 09:17 40.068697 -122.991130 181 37003ft 463kts
18-Oct-20 09:18 39.940106 -122.987374 181 37007ft 463kts
18-Oct-20 09:19 39.811159 -122.983621 181 37009ft 463kts
18-Oct-20 09:20 39.682539 -122.979893 181 37013ft 463kts
18-Oct-20 09:21 39.553962 -122.976180 181 36626ft 460kts
18-Oct-20 09:22 39.427909 -122.972553 181 35626ft 453kts
18-Oct-20 09:23 39.301360 -122.968925 181 34621ft 455kts
18-Oct-20 09:25 39.174727 -122.965268 181 33619ft 457kts
18-Oct-20 09:26 39.047505 -122.961993 181 32617ft 459kts
18-Oct-20 09:27 38.917713 -122.959282 175 31085ft 469kts
18-Oct-20 09:28 38.791163 -122.934278 165 28142ft 458kts
18-Oct-20 09:29 38.667664 -122.897463 165 25411ft 441kts
18-Oct-20 09:30 38.556074 -122.864539 165 24764ft 391kts
18-Oct-20 09:31 38.450448 -122.833470 165 23070ft 387kts
18-Oct-20 09:32 38.347374 -122.803196 165 21358ft 378kts
18-Oct-20 09:33 38.245457 -122.773311 165 19668ft 370kts
18-Oct-20 09:34 38.146078 -122.744392 165 18021ft 362kts
18-Oct-20 09:35 38.049106 -122.716235 166 16404ft 355kts
18-Oct-20 09:36 37.953692 -122.688600 166 14820ft 345kts
18-Oct-20 09:37 37.869435 -122.642507 138 13446ft 322kts
18-Oct-20 09:38 37.802497 -122.570428 138 11934ft 312kts
18-Oct-20 09:39 37.738735 -122.502969 138 11176ft 279kts
18-Oct-20 09:40 37.675369 -122.435579 138 10736ft 284kts
18-Oct-20 09:41 37.617674 -122.374279 139 9679ft 266kts
18-Oct-20 09:41 37.563287 -122.339321 155 8635ft 262kts
18-Oct-20 09:43 37.501865 -122.276456 123 7396ft 231kts
18-Oct-20 09:43 37.471543 -122.222086 123 6174ft 225kts
18-Oct-20 09:45 37.430519 -122.147775 123 4421ft 218kts
18-Oct-20 09:45 37.402065 -122.094872 123 3996ft 219kts
18-Oct-20 09:46 37.368606 -122.030466 123 3992ft 220kts
18-Oct-20 09:47 37.378076 -121.969003 7 3994ft 215kts
18-Oct-20 09:48 37.428784 -122.001395 323 3991ft 208kts
18-Oct-20 09:49 37.473072 -122.043506 316 3991ft 192kts
18-Oct-20 09:50 37.502528 -122.098637 300 3110ft 190kts
18-Oct-20 09:51 37.527999 -122.157786 299 3093ft 193kts
18-Oct-20 09:52 37.552461 -122.216371 298 2398ft 170kts
18-Oct-20 09:53 37.571927 -122.263122 298 1606ft 140kts
18-Oct-20 09:54 37.589944 -122.306349 298 934ft 138kts
18-Oct-20 09:55 37.607726 -122.349090 298 274ft 137kts
18-Oct-20 09:56 37.620795 -122.380029 297 32ft 40kts
18-Oct-20 09:57 37.621195 -122.383222 197 32ft 0kts
18-Oct-20 09:58 37.620553 -122.384060 286 32ft 11kts
18-Oct-20 09:59 37.618852 -122.385895 182 32ft 0kts

Navigation Log

Ident Type
Flight plan parsing failed, navigation log unavailable